sensor_id;sensor_type;location;lat;lon;timestamp;pressure;altitude;pressure_sealevel;temperature;humidity
80542;BME280;69870;51.460;8.842;2023-05-06T00:01:30;98548.09;;;10.73;79.85
80542;BME280;69870;51.460;8.842;2023-05-06T00:03:59;98547.78;;;10.75;80.65
80542;BME280;69870;51.460;8.842;2023-05-06T00:06:25;98547.78;;;10.75;80.36
80542;BME280;69870;51.460;8.842;2023-05-06T00:08:53;98548.09;;;10.73;80.08
80542;BME280;69870;51.460;8.842;2023-05-06T00:11:19;98545.84;;;10.75;80.55
80542;BME280;69870;51.460;8.842;2023-05-06T00:13:46;98543.91;;;10.76;80.13
80542;BME280;69870;51.460;8.842;2023-05-06T00:16:13;98542.78;;;10.77;80.24
80542;BME280;69870;51.460;8.842;2023-05-06T00:18:40;98547.78;;;10.75;80.13
80542;BME280;69870;51.460;8.842;2023-05-06T00:21:08;98543.13;;;10.75;80.38
80542;BME280;69870;51.460;8.842;2023-05-06T00:23:34;98539.19;;;10.73;80.64
80542;BME280;69870;51.460;8.842;2023-05-06T00:26:01;98550.38;;;10.71;80.67
80542;BME280;69870;51.460;8.842;2023-05-06T00:28:28;98541.78;;;10.69;80.27
80542;BME280;69870;51.460;8.842;2023-05-06T00:30:54;98537.16;;;10.70;80.58
80542;BME280;69870;51.460;8.842;2023-05-06T00:33:21;98541.03;;;10.69;80.32
80542;BME280;69870;51.460;8.842;2023-05-06T00:35:47;98544.50;;;10.69;79.86
80542;BME280;69870;51.460;8.842;2023-05-06T00:38:16;98544.88;;;10.68;80.60
80542;BME280;69870;51.460;8.842;2023-05-06T00:40:44;98542.50;;;10.66;80.43
80542;BME280;69870;51.460;8.842;2023-05-06T00:43:11;98542.84;;;10.65;80.61
80542;BME280;69870;51.460;8.842;2023-05-06T00:45:38;98546.34;;;10.65;80.13
80542;BME280;69870;51.460;8.842;2023-05-06T00:48:05;98544.00;;;10.64;80.11
80542;BME280;69870;51.460;8.842;2023-05-06T00:50:33;98537.66;;;10.60;80.20
80542;BME280;69870;51.460;8.842;2023-05-06T00:53:02;98542.63;;;10.58;80.79
80542;BME280;69870;51.460;8.842;2023-05-06T00:55:30;98543.44;;;10.58;80.89
80542;BME280;69870;51.460;8.842;2023-05-06T00:57:57;98547.63;;;10.56;80.78
80542;BME280;69870;51.460;8.842;2023-05-06T01:00:24;98548.44;;;10.56;80.29
80542;BME280;69870;51.460;8.842;2023-05-06T01:02:51;98535.88;;;10.52;80.60
80542;BME280;69870;51.460;8.842;2023-05-06T01:05:19;98536.59;;;10.49;80.92
80542;BME280;69870;51.460;8.842;2023-05-06T01:07:53;98536.59;;;10.49;80.72
80542;BME280;69870;51.460;8.842;2023-05-06T01:10:26;98531.84;;;10.46;80.89
80542;BME280;69870;51.460;8.842;2023-05-06T01:13:06;98523.94;;;10.41;80.63
80542;BME280;69870;51.460;8.842;2023-05-06T01:15:37;98530.06;;;10.38;80.98
80542;BME280;69870;51.460;8.842;2023-05-06T01:18:09;98524.97;;;10.36;80.75
80542;BME280;69870;51.460;8.842;2023-05-06T01:20:36;98524.53;;;10.34;80.60
80542;BME280;69870;51.460;8.842;2023-05-06T01:23:10;98526.44;;;10.33;80.97
80542;BME280;69870;51.460;8.842;2023-05-06T01:25:37;98529.59;;;10.36;80.90
80542;BME280;69870;51.460;8.842;2023-05-06T01:28:04;98518.66;;;10.32;80.51
80542;BME280;69870;51.460;8.842;2023-05-06T01:30:39;98524.44;;;10.30;80.46
80542;BME280;69870;51.460;8.842;2023-05-06T01:33:13;98523.19;;;10.28;80.38
80542;BME280;69870;51.460;8.842;2023-05-06T01:35:51;98518.13;;;10.26;80.69
80542;BME280;69870;51.460;8.842;2023-05-06T01:38:26;98525.81;;;10.24;80.54
80542;BME280;69870;51.460;8.842;2023-05-06T01:40:56;98530.81;;;10.22;80.28
80542;BME280;69870;51.460;8.842;2023-05-06T01:43:26;98535.47;;;10.22;80.39
80542;BME280;69870;51.460;8.842;2023-05-06T01:45:53;98535.91;;;10.24;80.39
80542;BME280;69870;51.460;8.842;2023-05-06T01:48:22;98535.13;;;10.23;80.60
80542;BME280;69870;51.460;8.842;2023-05-06T01:50:50;98536.69;;;10.24;80.45
80542;BME280;69870;51.460;8.842;2023-05-06T01:53:16;98531.25;;;10.24;80.79
80542;BME280;69870;51.460;8.842;2023-05-06T01:55:44;98532.84;;;10.25;80.29
80542;BME280;69870;51.460;8.842;2023-05-06T01:58:13;98540.63;;;10.27;80.45
80542;BME280;69870;51.460;8.842;2023-05-06T02:00:40;98537.59;;;10.28;80.32
80542;BME280;69870;51.460;8.842;2023-05-06T02:03:06;98532.47;;;10.27;80.08
80542;BME280;69870;51.460;8.842;2023-05-06T02:05:33;98535.13;;;10.23;80.72
80542;BME280;69870;51.460;8.842;2023-05-06T02:08:01;98530.03;;;10.22;80.30
80542;BME280;69870;51.460;8.842;2023-05-06T02:10:28;98540.91;;;10.22;80.36
80542;BME280;69870;51.460;8.842;2023-05-06T02:13:01;98544.38;;;10.22;80.88
80542;BME280;69870;51.460;8.842;2023-05-06T02:15:28;98542.13;;;10.24;80.42
80542;BME280;69870;51.460;8.842;2023-05-06T02:17:55;98545.63;;;10.25;80.59
80542;BME280;69870;51.460;8.842;2023-05-06T02:20:22;98542.59;;;10.26;80.52
80542;BME280;69870;51.460;8.842;2023-05-06T02:22:49;98543.03;;;10.28;80.47
80542;BME280;69870;51.460;8.842;2023-05-06T02:25:16;98550.38;;;10.28;80.52
80542;BME280;69870;51.460;8.842;2023-05-06T02:27:44;98548.91;;;10.30;80.10
80542;BME280;69870;51.460;8.842;2023-05-06T02:30:12;98550.81;;;10.30;80.41
80542;BME280;69870;51.460;8.842;2023-05-06T02:32:39;98551.63;;;10.30;80.71
80542;BME280;69870;51.460;8.842;2023-05-06T02:35:06;98556.25;;;10.30;80.75
80542;BME280;69870;51.460;8.842;2023-05-06T02:37:33;98557.06;;;10.30;80.50
80542;BME280;69870;51.460;8.842;2023-05-06T02:40:00;98555.03;;;10.27;80.71
80542;BME280;69870;51.460;8.842;2023-05-06T02:42:27;98548.78;;;10.27;80.91
80542;BME280;69870;51.460;8.842;2023-05-06T02:44:53;98558.78;;;10.23;80.71
80542;BME280;69870;51.460;8.842;2023-05-06T02:47:21;98554.50;;;10.22;80.79
80542;BME280;69870;51.460;8.842;2023-05-06T02:49:48;98557.31;;;10.25;80.71
80542;BME280;69870;51.460;8.842;2023-05-06T02:52:14;98559.34;;;10.28;80.94
80542;BME280;69870;51.460;8.842;2023-05-06T02:54:41;98550.81;;;10.30;80.57
80542;BME280;69870;51.460;8.842;2023-05-06T02:57:07;98548.09;;;10.30;80.72
80542;BME280;69870;51.460;8.842;2023-05-06T02:59:34;98554.78;;;10.32;81.13
80542;BME280;69870;51.460;8.842;2023-05-06T03:02:01;98549.78;;;10.35;80.63
80542;BME280;69870;51.460;8.842;2023-05-06T03:04:29;98561.09;;;10.37;80.97
80542;BME280;69870;51.460;8.842;2023-05-06T03:06:56;98562.34;;;10.39;80.69
80542;BME280;69870;51.460;8.842;2023-05-06T03:09:22;98563.47;;;10.38;80.49
80542;BME280;69870;51.460;8.842;2023-05-06T03:11:49;98559.97;;;10.38;80.64
80542;BME280;69870;51.460;8.842;2023-05-06T03:14:16;98555.00;;;10.40;80.75
80542;BME280;69870;51.460;8.842;2023-05-06T03:16:43;98554.28;;;10.43;80.56
80542;BME280;69870;51.460;8.842;2023-05-06T03:19:10;98558.59;;;10.44;81.07
80542;BME280;69870;51.460;8.842;2023-05-06T03:21:38;98557.78;;;10.43;81.21
80542;BME280;69870;51.460;8.842;2023-05-06T03:24:05;98549.28;;;10.45;80.78
80542;BME280;69870;51.460;8.842;2023-05-06T03:26:33;98557.78;;;10.43;81.31
80542;BME280;69870;51.460;8.842;2023-05-06T03:29:00;98560.50;;;10.43;81.18
80542;BME280;69870;51.460;8.842;2023-05-06T03:31:26;98570.34;;;10.48;81.22
80542;BME280;69870;51.460;8.842;2023-05-06T03:33:54;98566.16;;;10.50;81.02
80542;BME280;69870;51.460;8.842;2023-05-06T03:36:21;98564.31;;;10.54;80.66
80542;BME280;69870;51.460;8.842;2023-05-06T03:38:52;98555.78;;;10.56;81.16
80542;BME280;69870;51.460;8.842;2023-05-06T03:41:20;98560.09;;;10.57;81.33
80542;BME280;69870;51.460;8.842;2023-05-06T03:43:47;98562.16;;;10.60;81.64
80542;BME280;69870;51.460;8.842;2023-05-06T03:46:16;98562.59;;;10.62;81.23
80542;BME280;69870;51.460;8.842;2023-05-06T03:48:44;98562.66;;;10.65;80.88
80542;BME280;69870;51.460;8.842;2023-05-06T03:51:13;98561.19;;;10.68;80.67
80542;BME280;69870;51.460;8.842;2023-05-06T03:53:40;98562.88;;;10.72;81.36
80542;BME280;69870;51.460;8.842;2023-05-06T03:56:08;98568.31;;;10.72;80.95
80542;BME280;69870;51.460;8.842;2023-05-06T03:58:37;98570.81;;;10.65;81.26
80542;BME280;69870;51.460;8.842;2023-05-06T04:01:06;98571.78;;;10.57;81.97
80542;BME280;69870;51.460;8.842;2023-05-06T04:03:32;98566.34;;;10.57;81.22
80542;BME280;69870;51.460;8.842;2023-05-06T04:05:59;98565.63;;;10.60;81.49
80542;BME280;69870;51.460;8.842;2023-05-06T04:08:26;98567.66;;;10.63;81.29
80542;BME280;69870;51.460;8.842;2023-05-06T04:10:54;98563.47;;;10.66;81.05
80542;BME280;69870;51.460;8.842;2023-05-06T04:13:28;98554.63;;;10.69;81.68
80542;BME280;69870;51.460;8.842;2023-05-06T04:15:57;98563.22;;;10.71;81.34
80542;BME280;69870;51.460;8.842;2023-05-06T04:18:29;98563.66;;;10.73;80.86
80542;BME280;69870;51.460;8.842;2023-05-06T04:21:02;98563.75;;;10.76;81.20
80542;BME280;69870;51.460;8.842;2023-05-06T04:23:31;98565.34;;;10.77;81.30
80542;BME280;69870;51.460;8.842;2023-05-06T04:25:58;98572.00;;;10.80;80.97
80542;BME280;69870;51.460;8.842;2023-05-06T04:28:25;98579.03;;;10.81;81.23
80542;BME280;69870;51.460;8.842;2023-05-06T04:30:54;98574.03;;;10.83;81.41
80542;BME280;69870;51.460;8.842;2023-05-06T04:33:25;98576.50;;;10.88;81.39
80542;BME280;69870;51.460;8.842;2023-05-06T04:35:55;98580.44;;;10.90;80.93
80542;BME280;69870;51.460;8.842;2023-05-06T04:38:23;98580.53;;;10.94;81.44
80542;BME280;69870;51.460;8.842;2023-05-06T04:40:54;98586.41;;;10.96;81.08
80542;BME280;69870;51.460;8.842;2023-05-06T04:43:21;98591.53;;;10.97;80.86
80542;BME280;69870;51.460;8.842;2023-05-06T04:45:55;98583.78;;;10.99;80.97
80542;BME280;69870;51.460;8.842;2023-05-06T04:48:26;98586.97;;;11.01;81.20
80542;BME280;69870;51.460;8.842;2023-05-06T04:50:56;98592.41;;;11.01;81.60
80542;BME280;69870;51.460;8.842;2023-05-06T04:53:22;98590.47;;;11.02;80.58
80542;BME280;69870;51.460;8.842;2023-05-06T04:55:49;98593.19;;;11.02;81.42
80542;BME280;69870;51.460;8.842;2023-05-06T04:58:16;98593.97;;;11.02;81.23
80542;BME280;69870;51.460;8.842;2023-05-06T05:00:44;98599.50;;;11.06;81.15
80542;BME280;69870;51.460;8.842;2023-05-06T05:03:13;98600.81;;;11.12;80.74
80542;BME280;69870;51.460;8.842;2023-05-06T05:05:40;98599.16;;;11.23;80.57
80542;BME280;69870;51.460;8.842;2023-05-06T05:08:13;98616.47;;;11.31;80.57
80542;BME280;69870;51.460;8.842;2023-05-06T05:10:40;98607.25;;;11.35;80.72
80542;BME280;69870;51.460;8.842;2023-05-06T05:13:10;98605.84;;;11.41;80.29
80542;BME280;69870;51.460;8.842;2023-05-06T05:15:36;98604.53;;;11.51;80.19
80542;BME280;69870;51.460;8.842;2023-05-06T05:18:04;98614.94;;;11.64;79.74
80542;BME280;69870;51.460;8.842;2023-05-06T05:20:32;98619.22;;;11.77;78.94
80542;BME280;69870;51.460;8.842;2023-05-06T05:23:02;98613.19;;;11.88;78.57
80542;BME280;69870;51.460;8.842;2023-05-06T05:25:29;98602.66;;;11.86;79.18
80542;BME280;69870;51.460;8.842;2023-05-06T05:27:56;98608.44;;;11.85;78.86
80542;BME280;69870;51.460;8.842;2023-05-06T05:30:22;98609.25;;;11.85;78.78
80542;BME280;69870;51.460;8.842;2023-05-06T05:32:49;98607.81;;;11.91;79.49
80542;BME280;69870;51.460;8.842;2023-05-06T05:35:16;98611.13;;;12.00;78.35
80542;BME280;69870;51.460;8.842;2023-05-06T05:37:46;98608.31;;;12.12;78.00
80542;BME280;69870;51.460;8.842;2023-05-06T05:40:14;98607.03;;;12.25;78.48
80542;BME280;69870;51.460;8.842;2023-05-06T05:42:42;98608.03;;;12.36;77.44
80542;BME280;69870;51.460;8.842;2023-05-06T05:45:17;98617.22;;;12.47;77.85
80542;BME280;69870;51.460;8.842;2023-05-06T05:47:46;98611.84;;;12.51;77.26
80542;BME280;69870;51.460;8.842;2023-05-06T05:50:14;98621.25;;;12.53;76.24
80542;BME280;69870;51.460;8.842;2023-05-06T05:52:42;98617.00;;;12.56;76.88
80542;BME280;69870;51.460;8.842;2023-05-06T05:55:12;98615.59;;;12.62;77.48
80542;BME280;69870;51.460;8.842;2023-05-06T05:57:40;98616.13;;;12.71;76.17
80542;BME280;69870;51.460;8.842;2023-05-06T06:00:08;98611.91;;;12.74;76.40
80542;BME280;69870;51.460;8.842;2023-05-06T06:02:43;98611.75;;;12.67;76.12
80542;BME280;69870;51.460;8.842;2023-05-06T06:05:12;98612.56;;;12.67;76.13
80542;BME280;69870;51.460;8.842;2023-05-06T06:07:39;98608.88;;;12.79;75.85
80542;BME280;69870;51.460;8.842;2023-05-06T06:10:07;98614.81;;;13.03;75.19
80542;BME280;69870;51.460;8.842;2023-05-06T06:12:35;98616.97;;;13.36;75.11
80542;BME280;69870;51.460;8.842;2023-05-06T06:15:04;98618.78;;;13.51;73.67
80542;BME280;69870;51.460;8.842;2023-05-06T06:17:31;98615.19;;;13.70;74.13
80542;BME280;69870;51.460;8.842;2023-05-06T06:19:58;98626.72;;;13.82;73.62
80542;BME280;69870;51.460;8.842;2023-05-06T06:22:25;98618.34;;;13.98;72.97
80542;BME280;69870;51.460;8.842;2023-05-06T06:24:54;98615.63;;;14.24;72.70
80542;BME280;69870;51.460;8.842;2023-05-06T06:27:23;98625.81;;;14.01;72.65
80542;BME280;69870;51.460;8.842;2023-05-06T06:29:51;98627.19;;;14.14;72.75
80542;BME280;69870;51.460;8.842;2023-05-06T06:32:17;98629.72;;;14.26;71.83
80542;BME280;69870;51.460;8.842;2023-05-06T06:34:44;98624.81;;;14.13;72.12
80542;BME280;69870;51.460;8.842;2023-05-06T06:37:11;98630.72;;;14.15;72.28
80542;BME280;69870;51.460;8.842;2023-05-06T06:39:38;98623.81;;;14.24;72.24
80542;BME280;69870;51.460;8.842;2023-05-06T06:42:04;98622.13;;;14.42;71.43
80542;BME280;69870;51.460;8.842;2023-05-06T06:44:44;98614.41;;;14.85;71.42
80542;BME280;69870;51.460;8.842;2023-05-06T06:47:12;98614.94;;;15.34;71.18
80542;BME280;69870;51.460;8.842;2023-05-06T06:49:39;98623.06;;;15.67;69.82
80542;BME280;69870;51.460;8.842;2023-05-06T06:52:05;98614.56;;;15.83;68.72
80542;BME280;69870;51.460;8.842;2023-05-06T06:54:32;98616.22;;;15.94;68.15
80542;BME280;69870;51.460;8.842;2023-05-06T06:56:58;98616.34;;;16.12;67.58
80542;BME280;69870;51.460;8.842;2023-05-06T06:59:25;98615.69;;;16.33;67.31
80542;BME280;69870;51.460;8.842;2023-05-06T07:01:52;98618.72;;;16.17;67.53
80542;BME280;69870;51.460;8.842;2023-05-06T07:04:20;98625.78;;;16.14;67.19
80542;BME280;69870;51.460;8.842;2023-05-06T07:06:47;98626.66;;;16.36;67.01
80542;BME280;69870;51.460;8.842;2023-05-06T07:09:13;98635.84;;;16.61;66.22
80542;BME280;69870;51.460;8.842;2023-05-06T07:11:40;98629.66;;;16.89;65.35
80542;BME280;69870;51.460;8.842;2023-05-06T07:14:06;98637.56;;;16.98;65.03
80542;BME280;69870;51.460;8.842;2023-05-06T07:16:33;98637.59;;;17.12;64.30
80542;BME280;69870;51.460;8.842;2023-05-06T07:19:00;98639.19;;;17.13;63.99
80542;BME280;69870;51.460;8.842;2023-05-06T07:21:28;98638.06;;;17.42;63.58
80542;BME280;69870;51.460;8.842;2023-05-06T07:23:56;98641.66;;;17.78;63.04
80542;BME280;69870;51.460;8.842;2023-05-06T07:26:23;98638.44;;;18.21;61.76
80542;BME280;69870;51.460;8.842;2023-05-06T07:28:50;98639.97;;;18.40;60.54
80542;BME280;69870;51.460;8.842;2023-05-06T07:31:17;98637.63;;;18.53;60.26
80542;BME280;69870;51.460;8.842;2023-05-06T07:33:45;98642.59;;;18.86;59.94
80542;BME280;69870;51.460;8.842;2023-05-06T07:36:11;98638.47;;;19.19;58.77
80542;BME280;69870;51.460;8.842;2023-05-06T07:38:39;98637.56;;;19.46;58.46
80542;BME280;69870;51.460;8.842;2023-05-06T07:41:06;98643.75;;;19.61;57.78
80542;BME280;69870;51.460;8.842;2023-05-06T07:43:33;98636.38;;;19.95;57.57
80542;BME280;69870;51.460;8.842;2023-05-06T07:45:59;98641.59;;;20.30;56.88
80542;BME280;69870;51.460;8.842;2023-05-06T07:48:29;98640.47;;;20.62;56.09
80542;BME280;69870;51.460;8.842;2023-05-06T07:50:56;98639.41;;;20.82;55.44
80542;BME280;69870;51.460;8.842;2023-05-06T07:53:23;98629.38;;;20.95;54.97
80542;BME280;69870;51.460;8.842;2023-05-06T07:55:52;98633.75;;;20.93;55.15
80542;BME280;69870;51.460;8.842;2023-05-06T07:58:21;98629.81;;;21.24;55.32
80542;BME280;69870;51.460;8.842;2023-05-06T08:00:48;98623.59;;;21.43;54.56
80542;BME280;69870;51.460;8.842;2023-05-06T08:03:14;98629.47;;;21.18;54.63
80542;BME280;69870;51.460;8.842;2023-05-06T08:05:41;98629.91;;;21.17;54.32
80542;BME280;69870;51.460;8.842;2023-05-06T08:08:08;98635.16;;;21.08;54.46
80542;BME280;69870;51.460;8.842;2023-05-06T08:10:35;98636.63;;;20.86;54.97
80542;BME280;69870;51.460;8.842;2023-05-06T08:13:03;98641.97;;;21.30;54.42
80542;BME280;69870;51.460;8.842;2023-05-06T08:15:29;98640.50;;;21.75;53.26
80542;BME280;69870;51.460;8.842;2023-05-06T08:17:56;98640.28;;;22.13;53.20
80542;BME280;69870;51.460;8.842;2023-05-06T08:20:24;98636.03;;;22.28;53.76
80542;BME280;69870;51.460;8.842;2023-05-06T08:22:50;98645.53;;;22.50;53.28
80542;BME280;69870;51.460;8.842;2023-05-06T08:25:17;98642.75;;;22.73;52.61
80542;BME280;69870;51.460;8.842;2023-05-06T08:27:44;98637.03;;;23.00;51.43
80542;BME280;69870;51.460;8.842;2023-05-06T08:30:14;98642.38;;;22.91;50.77
80542;BME280;69870;51.460;8.842;2023-05-06T08:32:40;98641.03;;;22.79;50.94
80542;BME280;69870;51.460;8.842;2023-05-06T08:35:07;98634.47;;;22.89;51.57
80542;BME280;69870;51.460;8.842;2023-05-06T08:37:34;98639.78;;;23.19;50.68
80542;BME280;69870;51.460;8.842;2023-05-06T08:40:02;98641.41;;;23.37;49.81
80542;BME280;69870;51.460;8.842;2023-05-06T08:42:29;98638.13;;;23.74;49.39
80542;BME280;69870;51.460;8.842;2023-05-06T08:44:58;98637.09;;;24.16;48.05
80542;BME280;69870;51.460;8.842;2023-05-06T08:47:26;98634.78;;;24.43;47.40
80542;BME280;69870;51.460;8.842;2023-05-06T08:49:52;98639.19;;;24.86;46.81
80542;BME280;69870;51.460;8.842;2023-05-06T08:52:19;98640.78;;;25.12;46.91
80542;BME280;69870;51.460;8.842;2023-05-06T08:54:49;98634.47;;;25.36;45.74
80542;BME280;69870;51.460;8.842;2023-05-06T08:57:18;98635.06;;;25.44;45.81
80542;BME280;69870;51.460;8.842;2023-05-06T08:59:44;98636.84;;;25.63;45.26
80542;BME280;69870;51.460;8.842;2023-05-06T09:02:11;98631.88;;;26.17;43.93
80542;BME280;69870;51.460;8.842;2023-05-06T09:04:39;98630.09;;;26.67;42.53
80542;BME280;69870;51.460;8.842;2023-05-06T09:07:07;98635.34;;;26.99;41.79
80542;BME280;69870;51.460;8.842;2023-05-06T09:09:33;98631.59;;;26.93;40.99
80542;BME280;69870;51.460;8.842;2023-05-06T09:12:00;98628.41;;;26.48;41.97
80542;BME280;69870;51.460;8.842;2023-05-06T09:14:27;98630.25;;;26.42;42.06
80542;BME280;69870;51.460;8.842;2023-05-06T09:16:53;98621.97;;;26.94;41.33
80542;BME280;69870;51.460;8.842;2023-05-06T09:19:20;98617.34;;;27.31;40.75
80542;BME280;69870;51.460;8.842;2023-05-06T09:21:50;98625.38;;;27.50;40.45
80542;BME280;69870;51.460;8.842;2023-05-06T09:24:17;98621.78;;;27.90;40.41
80542;BME280;69870;51.460;8.842;2023-05-06T09:26:44;98615.94;;;28.15;38.72
80542;BME280;69870;51.460;8.842;2023-05-06T09:29:11;98624.03;;;28.13;38.05
80542;BME280;69870;51.460;8.842;2023-05-06T09:31:42;98624.28;;;27.97;37.75
80542;BME280;69870;51.460;8.842;2023-05-06T09:34:10;98624.81;;;28.04;38.22
80542;BME280;69870;51.460;8.842;2023-05-06T09:36:37;98624.50;;;28.29;38.05
80542;BME280;69870;51.460;8.842;2023-05-06T09:39:06;98613.47;;;28.71;36.99
80542;BME280;69870;51.460;8.842;2023-05-06T09:41:33;98615.31;;;29.01;36.13
80542;BME280;69870;51.460;8.842;2023-05-06T09:44:00;98618.16;;;28.74;36.61
80542;BME280;69870;51.460;8.842;2023-05-06T09:46:26;98617.84;;;28.63;36.27
80542;BME280;69870;51.460;8.842;2023-05-06T09:48:55;98612.25;;;28.63;36.09
80542;BME280;69870;51.460;8.842;2023-05-06T09:51:22;98614.72;;;28.52;36.38
80542;BME280;69870;51.460;8.842;2023-05-06T09:53:48;98612.84;;;28.76;35.90
80542;BME280;69870;51.460;8.842;2023-05-06T09:56:18;98609.84;;;28.98;35.81
80542;BME280;69870;51.460;8.842;2023-05-06T09:58:46;98609.00;;;29.16;34.48
80542;BME280;69870;51.460;8.842;2023-05-06T10:01:14;98612.97;;;28.00;35.95
80542;BME280;69870;51.460;8.842;2023-05-06T10:03:41;98605.91;;;26.64;37.54
80542;BME280;69870;51.460;8.842;2023-05-06T10:06:10;98605.63;;;25.68;39.39
80542;BME280;69870;51.460;8.842;2023-05-06T10:08:37;98606.91;;;25.01;40.58
80542;BME280;69870;51.460;8.842;2023-05-06T10:11:05;98605.13;;;24.53;41.94
80542;BME280;69870;51.460;8.842;2023-05-06T10:13:35;98605.34;;;24.30;41.66
80542;BME280;69870;51.460;8.842;2023-05-06T10:16:04;98605.31;;;23.85;42.53
80542;BME280;69870;51.460;8.842;2023-05-06T10:18:31;98600.44;;;23.89;43.07
80542;BME280;69870;51.460;8.842;2023-05-06T10:21:01;98598.19;;;23.68;43.19
80542;BME280;69870;51.460;8.842;2023-05-06T10:23:34;98599.47;;;23.31;44.17
80542;BME280;69870;51.460;8.842;2023-05-06T10:26:05;98601.16;;;23.25;44.38
80542;BME280;69870;51.460;8.842;2023-05-06T10:28:38;98601.75;;;23.16;44.56
80542;BME280;69870;51.460;8.842;2023-05-06T10:31:08;98598.19;;;22.80;45.08
80542;BME280;69870;51.460;8.842;2023-05-06T10:33:36;98597.66;;;23.05;44.21
80542;BME280;69870;51.460;8.842;2023-05-06T10:36:13;98588.59;;;24.74;41.02
80542;BME280;69870;51.460;8.842;2023-05-06T10:38:43;98585.91;;;25.50;39.50
80542;BME280;69870;51.460;8.842;2023-05-06T10:41:12;98588.16;;;26.58;38.57
80542;BME280;69870;51.460;8.842;2023-05-06T10:43:41;98576.31;;;27.58;36.87
80542;BME280;69870;51.460;8.842;2023-05-06T10:46:10;98575.22;;;28.41;35.72
80542;BME280;69870;51.460;8.842;2023-05-06T10:48:39;98569.59;;;28.86;35.04
80542;BME280;69870;51.460;8.842;2023-05-06T10:51:26;98568.56;;;29.17;34.41
80542;BME280;69870;51.460;8.842;2023-05-06T10:53:58;98562.88;;;29.67;33.70
80542;BME280;69870;51.460;8.842;2023-05-06T10:56:27;98558.25;;;29.88;33.17
80542;BME280;69870;51.460;8.842;2023-05-06T10:58:56;98558.34;;;29.70;33.00
80542;BME280;69870;51.460;8.842;2023-05-06T11:01:25;98556.47;;;29.43;33.58
80542;BME280;69870;51.460;8.842;2023-05-06T11:03:52;98552.22;;;29.48;33.68
80542;BME280;69870;51.460;8.842;2023-05-06T11:06:31;98551.56;;;29.20;34.11
80542;BME280;69870;51.460;8.842;2023-05-06T11:08:58;98555.47;;;29.14;33.48
80542;BME280;69870;51.460;8.842;2023-05-06T11:11:52;98552.31;;;29.30;33.09
80542;BME280;69870;51.460;8.842;2023-05-06T11:14:30;98549.69;;;28.48;34.00
80542;BME280;69870;51.460;8.842;2023-05-06T11:16:57;98550.81;;;28.23;34.56
80542;BME280;69870;51.460;8.842;2023-05-06T11:19:27;98542.22;;;27.91;34.50
80542;BME280;69870;51.460;8.842;2023-05-06T11:21:55;98561.31;;;26.73;36.15
80542;BME280;69870;51.460;8.842;2023-05-06T11:24:24;98550.59;;;27.33;35.36
80542;BME280;69870;51.460;8.842;2023-05-06T11:26:52;98548.53;;;27.15;35.17
80542;BME280;69870;51.460;8.842;2023-05-06T11:29:19;98544.16;;;27.54;35.35
80542;BME280;69870;51.460;8.842;2023-05-06T11:31:47;98546.78;;;28.15;33.98
80542;BME280;69870;51.460;8.842;2023-05-06T11:34:24;98544.94;;;28.99;33.04
80542;BME280;69870;51.460;8.842;2023-05-06T11:36:54;98534.59;;;29.80;32.64
80542;BME280;69870;51.460;8.842;2023-05-06T11:39:23;98528.31;;;30.32;31.22
80542;BME280;69870;51.460;8.842;2023-05-06T11:41:51;98531.59;;;30.46;30.93
80542;BME280;69870;51.460;8.842;2023-05-06T11:44:25;98530.06;;;30.74;30.72
80542;BME280;69870;51.460;8.842;2023-05-06T11:46:57;98524.66;;;30.99;30.08
80542;BME280;69870;51.460;8.842;2023-05-06T11:49:24;98533.16;;;30.76;31.39
80542;BME280;69870;51.460;8.842;2023-05-06T11:51:51;98516.69;;;30.39;31.74
80542;BME280;69870;51.460;8.842;2023-05-06T11:54:18;98519.75;;;29.89;32.85
80542;BME280;69870;51.460;8.842;2023-05-06T11:56:49;98521.56;;;29.44;33.48
80542;BME280;69870;51.460;8.842;2023-05-06T11:59:16;98535.47;;;28.97;33.80
80542;BME280;69870;51.460;8.842;2023-05-06T12:01:44;98531.38;;;28.20;34.69
80542;BME280;69870;51.460;8.842;2023-05-06T12:04:12;98532.50;;;27.37;35.74
80542;BME280;69870;51.460;8.842;2023-05-06T12:06:39;98540.56;;;26.31;37.77
80542;BME280;69870;51.460;8.842;2023-05-06T12:09:10;98537.09;;;25.20;39.17
80542;BME280;69870;51.460;8.842;2023-05-06T12:11:38;98545.97;;;24.36;40.52
80542;BME280;69870;51.460;8.842;2023-05-06T12:14:06;98549.38;;;23.83;41.26
80542;BME280;69870;51.460;8.842;2023-05-06T12:16:35;98549.84;;;23.49;41.94
80542;BME280;69870;51.460;8.842;2023-05-06T12:19:02;98547.28;;;23.22;42.68
80542;BME280;69870;51.460;8.842;2023-05-06T12:21:31;98559.19;;;22.87;43.06
80542;BME280;69870;51.460;8.842;2023-05-06T12:24:03;98551.13;;;22.57;43.48
80542;BME280;69870;51.460;8.842;2023-05-06T12:26:44;98560.28;;;22.34;43.94
80542;BME280;69870;51.460;8.842;2023-05-06T12:29:13;98558.69;;;22.14;44.13
80542;BME280;69870;51.460;8.842;2023-05-06T12:31:42;98555.34;;;22.03;44.47
80542;BME280;69870;51.460;8.842;2023-05-06T12:34:09;98561.41;;;21.98;44.70
80542;BME280;69870;51.460;8.842;2023-05-06T12:36:42;98561.81;;;21.96;44.98
80542;BME280;69870;51.460;8.842;2023-05-06T12:39:09;98567.41;;;21.93;44.93
80542;BME280;69870;51.460;8.842;2023-05-06T12:41:38;98565.47;;;21.89;45.03
80542;BME280;69870;51.460;8.842;2023-05-06T12:44:31;98566.44;;;21.79;44.92
80542;BME280;69870;51.460;8.842;2023-05-06T12:46:59;98564.25;;;21.67;45.83
80542;BME280;69870;51.460;8.842;2023-05-06T12:49:26;98566.06;;;21.54;46.02
80542;BME280;69870;51.460;8.842;2023-05-06T12:52:07;98566.78;;;21.35;45.85
80542;BME280;69870;51.460;8.842;2023-05-06T12:54:34;98556.81;;;21.14;46.29
80542;BME280;69870;51.460;8.842;2023-05-06T12:57:01;98560.91;;;21.03;46.86
80542;BME280;69870;51.460;8.842;2023-05-06T12:59:28;98574.47;;;20.94;47.50
80542;BME280;69870;51.460;8.842;2023-05-06T13:01:54;98564.63;;;20.93;47.60
80542;BME280;69870;51.460;8.842;2023-05-06T13:04:21;98557.41;;;20.99;48.00
80542;BME280;69870;51.460;8.842;2023-05-06T13:06:48;98559.34;;;21.02;47.77